createdAt,value
2019-04-22T00:00:37.278Z,98211.00
2019-04-22T00:06:10.139Z,98208.00
2019-04-22T00:11:25.106Z,98207.00
2019-04-22T00:16:38.868Z,98196.00
2019-04-22T00:21:50.213Z,98193.00
2019-04-22T00:26:59.573Z,98183.00
2019-04-22T00:32:05.525Z,98187.00
2019-04-22T00:37:23.603Z,98188.00
2019-04-22T00:47:39.983Z,98181.00
2019-04-22T00:52:59.815Z,98184.00
2019-04-22T00:58:02.562Z,98181.00
2019-04-22T01:03:19.754Z,98177.00
2019-04-22T01:08:30.673Z,98171.00
2019-04-22T01:13:38.448Z,98170.00
2019-04-22T01:18:49.024Z,98161.00
2019-04-22T01:23:57.572Z,98156.00
2019-04-22T01:29:02.508Z,98151.00
2019-04-22T01:34:10.018Z,98134.00
2019-04-22T01:39:37.605Z,98146.00
2019-04-22T01:44:49.598Z,98133.00
2019-04-22T01:49:54.123Z,98140.00
2019-04-22T01:55:32.364Z,98132.00
2019-04-22T02:00:13.986Z,98119.00
2019-04-22T02:05:50.449Z,98111.00
2019-04-22T02:10:53.084Z,98113.00
2019-04-22T02:16:03.593Z,98104.00
2019-04-22T02:21:09.390Z,98107.00
2019-04-22T02:26:25.539Z,98090.00
2019-04-22T02:41:54.980Z,98089.00
2019-04-22T02:52:19.965Z,98087.00
2019-04-22T03:08:09.909Z,98064.00
2019-04-22T03:13:30.789Z,98064.00
2019-04-22T03:18:41.975Z,98067.00
2019-04-22T04:00:09.865Z,98046.00
2019-04-22T04:05:10.011Z,98038.00
2019-04-22T04:15:30.007Z,98036.00
2019-04-22T04:21:32.919Z,98032.00
2019-04-22T04:31:55.211Z,98033.00
2019-04-22T04:37:10.280Z,98030.00
2019-04-22T04:42:32.987Z,98040.00
2019-04-22T04:47:39.107Z,98048.00
2019-04-22T05:02:58.392Z,98039.00
2019-04-22T05:08:35.375Z,98038.00
2019-04-22T05:13:14.478Z,98030.00
2019-04-22T05:18:33.075Z,98028.00
2019-04-22T05:23:41.946Z,98031.00
2019-04-22T05:28:42.295Z,98025.00
2019-04-22T05:33:56.856Z,98017.00
2019-04-22T05:39:06.073Z,98027.00
2019-04-22T05:44:32.616Z,98024.00
2019-04-22T05:49:35.014Z,98015.00
2019-04-22T05:54:48.681Z,98017.00
2019-04-22T05:59:59.516Z,98014.00
2019-04-22T06:05:11.939Z,98011.00
2019-04-22T06:10:39.824Z,98013.00
2019-04-22T06:15:36.369Z,98017.00
2019-04-22T06:20:53.758Z,98017.00
2019-04-22T06:26:21.969Z,98009.00
2019-04-22T06:31:20.964Z,98023.00
2019-04-22T06:36:27.493Z,98023.00
2019-04-22T06:41:35.390Z,98010.00
2019-04-22T06:46:47.687Z,98006.00
2019-04-22T06:52:01.183Z,98006.00
2019-04-22T06:57:06.339Z,97998.00
2019-04-22T07:02:16.628Z,97997.00
2019-04-22T07:07:25.220Z,97994.00
2019-04-22T07:12:41.789Z,98000.00
2019-04-22T07:17:56.816Z,98006.00
2019-04-22T07:23:09.618Z,98003.00
2019-04-22T07:28:17.742Z,97988.00
2019-04-22T07:33:34.906Z,97997.00
2019-04-22T07:38:49.976Z,97994.00
2019-04-22T07:44:09.805Z,97995.00
2019-04-22T07:49:02.101Z,97982.00
2019-04-22T07:54:14.400Z,97982.00
2019-04-22T07:59:30.635Z,97974.00
2019-04-22T08:04:53.771Z,97975.00
2019-04-22T08:09:53.982Z,97977.00
2019-04-22T08:14:53.631Z,97980.00
2019-04-22T08:20:08.923Z,97981.00
2019-04-22T08:25:19.573Z,97966.00
2019-04-22T08:30:34.897Z,97958.00
2019-04-22T08:35:52.444Z,97971.00
2019-04-22T08:41:24.822Z,97971.00
2019-04-22T08:51:36.265Z,97972.00
2019-04-22T08:56:45.841Z,97965.00
2019-04-22T09:01:57.348Z,97971.00
2019-04-22T09:12:32.768Z,97961.00
2019-04-22T09:17:47.910Z,97959.00
2019-04-22T09:22:42.623Z,97963.00
2019-04-22T09:27:51.160Z,97954.00
2019-04-22T09:33:02.908Z,97942.00
2019-04-22T09:44:01.154Z,97940.00
2019-04-22T09:49:12.336Z,97937.00
2019-04-22T09:54:34.434Z,97930.00
2019-04-22T09:59:58.632Z,97917.00
2019-04-22T10:05:23.821Z,97928.00
2019-04-22T10:10:49.013Z,97925.00
2019-04-22T10:15:55.868Z,97927.00
2019-04-22T10:21:12.753Z,97910.00
2019-04-22T10:26:21.864Z,97904.00
2019-04-22T10:36:19.498Z,97903.00
2019-04-22T10:41:30.669Z,97895.00
2019-04-22T10:46:40.209Z,97894.00
2019-04-22T10:51:50.425Z,97881.00
2019-04-22T10:57:03.339Z,97876.00
2019-04-22T11:02:11.780Z,97858.00
2019-04-22T11:07:25.233Z,97858.00
2019-04-22T11:12:32.282Z,97853.00
2019-04-22T11:17:39.687Z,97860.00
2019-04-22T11:22:48.920Z,97849.00
2019-04-22T11:28:00.006Z,97846.00
2019-04-22T11:33:08.662Z,97841.00
2019-04-22T11:38:17.348Z,97842.00
2019-04-22T11:43:26.205Z,97844.00
2019-04-22T11:48:35.957Z,97832.00
2019-04-22T11:53:44.903Z,97833.00
2019-04-22T11:58:55.161Z,97827.00
2019-04-22T12:04:03.959Z,97829.00
2019-04-22T12:09:15.298Z,97830.00
2019-04-22T12:14:24.056Z,97825.00
2019-04-22T12:19:35.238Z,97822.00
2019-04-22T12:24:44.229Z,97811.00
2019-04-22T12:29:53.234Z,97794.00
2019-04-22T12:35:01.861Z,97800.00
2019-04-22T12:40:13.069Z,97776.00
2019-04-22T12:45:22.588Z,97777.00
2019-04-22T12:50:34.860Z,97775.00
2019-04-22T12:55:42.036Z,97772.00
2019-04-22T13:00:51.397Z,97767.00
2019-04-22T13:05:59.584Z,97754.00
2019-04-22T13:11:12.335Z,97752.00
2019-04-22T13:16:17.596Z,97743.00
2019-04-22T13:21:26.956Z,97732.00
2019-04-22T13:26:35.924Z,97739.00
2019-04-22T13:31:44.745Z,97739.00
2019-04-22T13:36:52.891Z,97745.00
2019-04-22T13:42:05.627Z,97737.00
2019-04-22T13:47:29.788Z,97730.00
2019-04-22T13:53:00.662Z,97737.00
2019-04-22T13:57:47.456Z,97729.00
2019-04-22T14:02:50.665Z,97730.00
2019-04-22T14:08:00.834Z,97720.00
2019-04-22T14:13:07.882Z,97712.00
2019-04-22T14:18:16.921Z,97719.00
2019-04-22T14:23:26.688Z,97710.00
2019-04-22T14:28:35.739Z,97709.00
2019-04-22T14:33:46.547Z,97715.00
2019-04-22T14:38:54.382Z,97707.00
2019-04-22T14:45:05.154Z,97696.00
2019-04-22T14:49:37.141Z,97696.00
2019-04-22T14:54:34.796Z,97683.00
2019-04-22T14:59:32.614Z,97681.00
2019-04-22T15:04:42.885Z,97676.00
2019-04-22T15:09:52.276Z,97678.00
2019-04-22T15:15:03.869Z,97681.00
2019-04-22T15:20:21.425Z,97685.00
2019-04-22T15:25:30.605Z,97685.00
2019-04-22T15:30:39.436Z,97681.00
2019-04-22T15:35:49.360Z,97667.00
2019-04-22T15:40:58.654Z,97666.00
2019-04-22T15:46:07.664Z,97656.00
2019-04-22T15:51:16.514Z,97667.00
2019-04-22T15:56:26.380Z,97652.00
2019-04-22T16:01:37.845Z,97657.00
2019-04-22T16:06:45.075Z,97651.00
2019-04-22T16:12:09.997Z,97652.00
2019-04-22T16:17:08.722Z,97661.00
2019-04-22T16:22:19.740Z,97664.00
2019-04-22T16:27:30.183Z,97657.00
2019-04-22T16:32:39.169Z,97655.00
2019-04-22T16:37:48.611Z,97657.00
2019-04-22T16:42:59.333Z,97661.00
2019-04-22T16:48:07.495Z,97645.00
2019-04-22T16:53:16.857Z,97651.00
2019-04-22T16:58:25.269Z,97658.00
2019-04-22T17:03:52.372Z,97658.00
2019-04-22T17:09:02.634Z,97662.00
2019-04-22T17:14:16.725Z,97671.00
2019-04-22T17:19:23.671Z,97675.00
2019-04-22T17:24:37.405Z,97685.00
2019-04-22T17:29:46.365Z,97672.00
2019-04-22T17:35:00.178Z,97681.00
2019-04-22T17:40:30.082Z,97680.00
2019-04-22T17:46:06.818Z,97685.00
2019-04-22T17:51:24.053Z,97697.00
2019-04-22T17:56:30.784Z,97684.00
2019-04-22T18:01:40.292Z,97689.00
2019-04-22T18:07:15.801Z,97702.00
2019-04-22T18:12:25.825Z,97707.00
2019-04-22T18:17:37.317Z,97707.00
2019-04-22T18:22:25.090Z,97718.00
2019-04-22T18:32:55.549Z,97716.00
2019-04-22T18:38:18.204Z,97713.00
2019-04-22T18:43:21.945Z,97721.00
2019-04-22T18:48:32.136Z,97722.00
2019-04-22T18:54:01.839Z,97724.00
2019-04-22T18:58:59.538Z,97731.00
2019-04-22T19:04:08.976Z,97732.00
2019-04-22T19:09:34.985Z,97740.00
2019-04-22T19:20:03.138Z,97717.00
2019-04-22T19:24:59.927Z,97710.00
2019-04-22T19:30:16.343Z,97713.00
2019-04-22T19:35:18.514Z,97701.00
2019-04-22T19:40:55.543Z,97704.00
2019-04-22T19:45:55.835Z,97697.00
2019-04-22T19:51:13.993Z,97682.00
2019-04-22T19:56:08.317Z,97686.00
2019-04-22T20:01:25.444Z,97674.00
2019-04-22T20:06:36.759Z,97674.00
2019-04-22T20:11:45.036Z,97665.00
2019-04-22T20:16:49.136Z,97670.00
2019-04-22T20:22:03.045Z,97664.00
2019-04-22T20:32:23.413Z,97656.00
2019-04-22T20:37:39.884Z,97648.00
2019-04-22T20:42:50.143Z,97642.00
2019-04-22T20:47:46.554Z,97655.00
2019-04-22T20:53:06.833Z,97640.00
2019-04-22T20:58:12.204Z,97647.00
2019-04-22T21:03:13.323Z,97638.00
2019-04-22T21:08:36.911Z,97638.00
2019-04-22T21:13:46.632Z,97627.00
2019-04-22T21:18:47.441Z,97623.00
2019-04-22T21:23:54.207Z,97628.00
2019-04-22T21:29:07.172Z,97614.00
2019-04-22T21:34:19.597Z,97611.00
2019-04-22T21:39:26.305Z,97605.00
2019-04-22T21:44:42.601Z,97593.00
2019-04-22T21:50:07.872Z,97588.00
2019-04-22T21:55:06.541Z,97591.00
2019-04-22T22:00:17.021Z,97579.00
2019-04-22T22:05:12.571Z,97567.00
2019-04-22T22:10:37.049Z,97567.00
2019-04-22T22:15:52.384Z,97561.00
2019-04-22T22:21:19.378Z,97560.00
2019-04-22T22:26:12.294Z,97559.00
2019-04-22T22:31:32.709Z,97550.00
2019-04-22T22:36:29.581Z,97548.00
2019-04-22T22:41:25.865Z,97540.00
2019-04-22T23:08:54.059Z,97515.00
2019-04-22T23:13:56.993Z,97514.00
2019-04-22T23:19:02.732Z,97495.00
2019-04-22T23:24:29.958Z,97496.00
2019-04-22T23:29:44.775Z,97495.00
2019-04-22T23:35:01.756Z,97489.00
2019-04-22T23:40:18.834Z,97484.00
2019-04-22T23:45:21.169Z,97473.00
2019-04-22T23:50:34.024Z,97476.00
2019-04-22T23:55:45.848Z,97467.00
